createdAt,value
2023-12-31T00:01:08.047Z,12.80
2023-12-31T00:03:38.699Z,12.57
2023-12-31T00:06:08.828Z,12.88
2023-12-31T00:08:39.110Z,13.55
2023-12-31T00:11:08.938Z,12.77
2023-12-31T00:13:39.449Z,13.77
2023-12-31T00:16:13.870Z,13.73
2023-12-31T00:18:44.797Z,14.00
2023-12-31T00:21:15.185Z,14.27
2023-12-31T00:23:45.934Z,15.32
2023-12-31T00:26:16.733Z,17.40
2023-12-31T00:28:47.204Z,17.90
2023-12-31T00:31:17.428Z,18.15
2023-12-31T00:33:48.038Z,18.20
2023-12-31T00:36:18.445Z,19.63
2023-12-31T00:38:51.034Z,19.70
2023-12-31T00:41:21.577Z,20.35
2023-12-31T00:43:52.123Z,21.92
2023-12-31T00:46:22.553Z,22.42
2023-12-31T00:48:52.919Z,23.02
2023-12-31T00:51:23.440Z,21.50
2023-12-31T00:53:54.286Z,22.65
2023-12-31T00:56:24.460Z,23.27
2023-12-31T00:58:54.853Z,22.55
2023-12-31T01:01:24.919Z,23.55
2023-12-31T01:03:55.393Z,22.83
2023-12-31T01:06:25.380Z,24.20
2023-12-31T01:08:59.172Z,23.98
2023-12-31T01:11:29.451Z,23.73
2023-12-31T01:13:59.695Z,23.75
2023-12-31T01:16:30.068Z,22.92
2023-12-31T01:19:00.647Z,23.27
2023-12-31T01:21:31.370Z,23.07
2023-12-31T01:24:02.076Z,23.95
2023-12-31T01:26:32.290Z,24.30
2023-12-31T01:29:02.484Z,25.20
2023-12-31T01:31:32.739Z,22.85
2023-12-31T01:34:02.920Z,24.23
2023-12-31T01:36:33.293Z,22.88
2023-12-31T01:39:03.347Z,29.33
2023-12-31T01:41:33.703Z,27.70
2023-12-31T01:44:05.650Z,27.48
2023-12-31T01:46:38.446Z,27.85
2023-12-31T01:49:11.777Z,26.73
2023-12-31T01:51:43.027Z,27.23
2023-12-31T01:54:13.851Z,28.70
2023-12-31T01:56:45.794Z,29.35
2023-12-31T01:59:16.794Z,27.02
2023-12-31T02:01:56.151Z,27.50
2023-12-31T02:04:36.416Z,27.02
2023-12-31T02:07:06.596Z,28.73
2023-12-31T02:09:37.096Z,28.83
2023-12-31T02:12:08.528Z,26.27
2023-12-31T02:14:39.351Z,23.52
2023-12-31T02:17:09.647Z,23.75
2023-12-31T02:19:41.106Z,25.10
2023-12-31T02:22:11.532Z,24.92
2023-12-31T02:24:53.076Z,25.98
2023-12-31T02:27:23.341Z,26.52
2023-12-31T02:29:53.477Z,24.33
2023-12-31T02:32:23.684Z,26.98
2023-12-31T02:34:54.578Z,26.02
2023-12-31T02:37:24.980Z,27.08
2023-12-31T02:39:55.475Z,30.73
2023-12-31T02:42:25.589Z,33.20
2023-12-31T02:44:55.871Z,31.40
2023-12-31T02:47:26.352Z,29.00
2023-12-31T02:49:59.081Z,28.35
2023-12-31T02:52:29.618Z,29.52
2023-12-31T02:54:59.815Z,29.58
2023-12-31T02:57:30.150Z,28.88
2023-12-31T03:00:00.432Z,28.58
2023-12-31T03:02:30.674Z,29.27
2023-12-31T03:05:01.197Z,28.90
2023-12-31T03:07:31.321Z,28.52
2023-12-31T03:10:02.340Z,27.98
2023-12-31T03:12:32.726Z,26.03
2023-12-31T03:15:03.457Z,23.27
2023-12-31T03:17:33.987Z,19.52
2023-12-31T03:20:05.007Z,20.60
2023-12-31T03:22:42.043Z,18.65
2023-12-31T03:25:14.191Z,18.60
2023-12-31T03:27:47.721Z,17.17
2023-12-31T03:30:18.522Z,18.25
2023-12-31T03:32:48.848Z,16.30
2023-12-31T03:35:19.527Z,16.77
2023-12-31T03:37:52.217Z,15.95
2023-12-31T03:40:26.204Z,17.33
2023-12-31T03:42:56.719Z,17.70
2023-12-31T03:45:26.848Z,17.27
2023-12-31T03:47:57.324Z,16.83
2023-12-31T03:50:28.107Z,17.90
2023-12-31T03:52:59.707Z,18.20
2023-12-31T03:55:30.451Z,17.85
2023-12-31T03:58:01.032Z,17.20
2023-12-31T04:00:31.113Z,16.15
2023-12-31T04:03:01.876Z,18.33
2023-12-31T04:05:33.385Z,18.27
2023-12-31T04:08:04.158Z,18.65
2023-12-31T04:10:34.720Z,18.77
2023-12-31T04:13:07.698Z,18.17
2023-12-31T04:15:38.331Z,18.50
2023-12-31T04:18:08.656Z,19.35
2023-12-31T04:20:38.881Z,18.25
2023-12-31T04:23:10.307Z,18.42
2023-12-31T04:25:41.101Z,18.98
2023-12-31T04:28:11.600Z,17.48
2023-12-31T04:30:42.832Z,17.88
2023-12-31T04:33:13.523Z,18.77
2023-12-31T04:35:50.939Z,17.42
2023-12-31T04:38:22.713Z,17.77
2023-12-31T04:40:52.879Z,17.70
2023-12-31T04:43:23.512Z,17.55
2023-12-31T04:45:53.672Z,18.23
2023-12-31T04:48:24.002Z,17.80
2023-12-31T04:50:54.382Z,17.38
2023-12-31T04:53:25.109Z,18.67
2023-12-31T04:55:55.751Z,19.13
2023-12-31T04:58:26.165Z,18.58
2023-12-31T05:00:56.258Z,16.98
2023-12-31T05:03:27.700Z,15.63
2023-12-31T05:05:57.813Z,15.00
2023-12-31T05:08:28.167Z,13.20
2023-12-31T05:10:58.326Z,14.07
2023-12-31T05:13:28.596Z,13.95
2023-12-31T05:15:59.333Z,12.70
2023-12-31T05:18:29.858Z,13.00
2023-12-31T05:21:01.860Z,12.88
2023-12-31T05:23:34.878Z,12.82
2023-12-31T05:26:06.190Z,12.98
2023-12-31T05:28:37.601Z,12.87
2023-12-31T05:31:07.702Z,13.35
2023-12-31T05:33:38.576Z,13.30
2023-12-31T05:36:09.079Z,12.50
2023-12-31T05:38:39.686Z,12.23
2023-12-31T05:41:09.721Z,13.93
2023-12-31T05:43:40.217Z,13.50
2023-12-31T05:46:10.590Z,12.88
2023-12-31T05:48:44.491Z,13.60
2023-12-31T05:51:14.842Z,12.82
2023-12-31T05:53:45.316Z,12.30
2023-12-31T05:56:16.143Z,12.60
2023-12-31T05:58:48.869Z,11.27
2023-12-31T06:01:20.911Z,11.13
2023-12-31T06:03:51.558Z,11.50
2023-12-31T06:06:22.662Z,11.32
2023-12-31T06:08:53.322Z,10.82
2023-12-31T06:11:23.642Z,11.15
2023-12-31T06:13:53.923Z,10.00
2023-12-31T06:16:24.534Z,10.57
2023-12-31T06:18:54.718Z,10.75
2023-12-31T06:21:25.408Z,9.73
2023-12-31T06:23:57.309Z,10.80
2023-12-31T06:26:28.281Z,9.35
2023-12-31T06:28:58.571Z,9.77
2023-12-31T06:31:28.954Z,10.05
2023-12-31T06:33:59.451Z,9.52
2023-12-31T06:36:29.644Z,8.65
2023-12-31T06:39:00.355Z,9.30
2023-12-31T06:41:30.337Z,9.52
2023-12-31T06:44:01.438Z,8.90
2023-12-31T06:46:31.614Z,9.17
2023-12-31T06:49:01.900Z,8.25
2023-12-31T06:51:32.454Z,8.43
2023-12-31T06:54:02.958Z,8.10
2023-12-31T06:56:33.537Z,7.72
2023-12-31T06:59:05.116Z,8.70
2023-12-31T07:01:35.853Z,7.53
2023-12-31T07:04:07.344Z,7.72
2023-12-31T07:06:40.549Z,8.18
2023-12-31T07:09:11.288Z,8.20
2023-12-31T07:11:41.214Z,7.60
2023-12-31T07:14:11.502Z,7.43
2023-12-31T07:16:41.606Z,7.65
2023-12-31T07:19:11.958Z,7.13
2023-12-31T07:21:42.005Z,7.20
2023-12-31T07:24:12.585Z,6.82
2023-12-31T07:26:43.070Z,7.15
2023-12-31T07:29:13.711Z,7.45
2023-12-31T07:31:44.322Z,7.18
2023-12-31T07:34:15.720Z,6.95
2023-12-31T07:36:47.140Z,7.63
2023-12-31T07:39:18.489Z,6.95
2023-12-31T07:41:50.641Z,7.30
2023-12-31T07:44:24.985Z,6.75
2023-12-31T07:46:55.170Z,7.03
2023-12-31T07:49:25.890Z,6.97
2023-12-31T07:51:56.971Z,7.70
2023-12-31T07:54:28.163Z,7.72
2023-12-31T07:56:58.647Z,7.43
2023-12-31T07:59:29.741Z,7.40
2023-12-31T08:02:02.239Z,6.53
2023-12-31T08:04:33.307Z,6.72
2023-12-31T08:07:05.758Z,7.20
2023-12-31T08:09:36.385Z,7.38
2023-12-31T08:12:06.941Z,7.03
2023-12-31T08:14:37.579Z,7.55
2023-12-31T08:17:07.685Z,6.80
2023-12-31T08:19:38.048Z,8.15
2023-12-31T08:22:09.361Z,8.68
2023-12-31T08:24:40.197Z,8.75
2023-12-31T08:27:10.983Z,9.85
2023-12-31T08:29:44.743Z,9.32
2023-12-31T08:32:15.635Z,8.57
2023-12-31T08:34:47.164Z,9.25
2023-12-31T08:37:18.153Z,9.48
2023-12-31T08:39:48.439Z,8.45
2023-12-31T08:42:19.771Z,9.73
2023-12-31T08:45:01.856Z,8.68
2023-12-31T08:47:36.784Z,9.23
2023-12-31T08:50:11.731Z,8.93
2023-12-31T08:52:47.542Z,9.45
2023-12-31T08:55:18.865Z,9.68
2023-12-31T08:57:50.248Z,9.90
2023-12-31T09:00:20.735Z,9.07
2023-12-31T09:02:51.047Z,10.10
2023-12-31T09:05:21.586Z,9.15
2023-12-31T09:07:52.182Z,9.32
2023-12-31T09:10:22.792Z,9.70
2023-12-31T09:12:53.143Z,10.13
2023-12-31T09:15:23.833Z,9.75
2023-12-31T09:17:54.132Z,9.38
2023-12-31T09:20:25.168Z,9.00
2023-12-31T09:22:55.855Z,9.55
2023-12-31T09:25:26.577Z,10.10
2023-12-31T09:27:57.569Z,9.93
2023-12-31T09:30:28.649Z,9.93
2023-12-31T09:33:00.742Z,11.80
2023-12-31T09:38:01.206Z,18.90
2023-12-31T09:40:31.485Z,19.60
2023-12-31T09:43:05.584Z,19.42
2023-12-31T09:45:36.837Z,17.35
2023-12-31T09:48:07.993Z,15.95
2023-12-31T09:50:38.584Z,14.25
2023-12-31T09:53:10.665Z,12.85
2023-12-31T09:55:41.822Z,12.48
2023-12-31T09:58:14.108Z,12.85
2023-12-31T10:00:44.473Z,13.38
2023-12-31T10:03:15.921Z,11.98
2023-12-31T10:05:49.511Z,11.63
2023-12-31T10:08:21.104Z,11.93
2023-12-31T10:10:53.571Z,11.90
2023-12-31T10:13:24.040Z,10.77
2023-12-31T10:15:54.596Z,10.75
2023-12-31T10:18:28.273Z,10.55
2023-12-31T10:20:59.038Z,10.77
2023-12-31T10:23:29.637Z,10.00
2023-12-31T10:26:00.734Z,10.40
2023-12-31T10:28:31.114Z,10.13
2023-12-31T10:31:01.511Z,11.30
2023-12-31T10:33:32.047Z,10.85
2023-12-31T10:36:12.439Z,10.82
2023-12-31T10:38:49.909Z,10.40
2023-12-31T10:41:23.622Z,11.15
2023-12-31T10:43:56.069Z,10.10
2023-12-31T10:46:30.835Z,10.52
2023-12-31T10:49:04.920Z,10.77
2023-12-31T10:51:41.700Z,10.93
2023-12-31T10:54:18.290Z,10.90
2023-12-31T10:56:51.422Z,11.20
2023-12-31T10:59:22.775Z,10.77
2023-12-31T11:01:54.725Z,9.77
2023-12-31T11:04:30.167Z,9.40
2023-12-31T11:07:06.293Z,9.15
2023-12-31T11:09:38.043Z,9.35
2023-12-31T11:12:10.754Z,8.88
2023-12-31T11:15:06.715Z,10.80
2023-12-31T11:18:01.518Z,12.05
2023-12-31T11:20:57.034Z,9.85
2023-12-31T11:23:37.620Z,9.57
2023-12-31T11:26:09.456Z,10.23
2023-12-31T11:28:40.713Z,10.40
2023-12-31T11:33:43.369Z,11.43
2023-12-31T11:36:15.543Z,12.95
2023-12-31T11:39:03.421Z,12.60
2023-12-31T11:41:35.865Z,12.82
2023-12-31T11:44:06.970Z,12.68
2023-12-31T11:46:42.862Z,12.13
2023-12-31T11:49:15.025Z,13.23
2023-12-31T11:51:54.876Z,11.95
2023-12-31T11:54:36.083Z,10.75
2023-12-31T11:57:08.824Z,10.80
2023-12-31T11:59:41.571Z,11.00
2023-12-31T12:02:12.612Z,10.75
2023-12-31T12:04:43.233Z,10.03
2023-12-31T12:07:13.771Z,9.68
2023-12-31T12:09:44.132Z,8.88
2023-12-31T12:12:14.621Z,9.07
2023-12-31T12:14:44.713Z,9.00
2023-12-31T12:17:15.423Z,8.43
2023-12-31T12:19:45.893Z,8.60
2023-12-31T12:22:16.828Z,8.20
2023-12-31T12:24:48.060Z,7.50
2023-12-31T12:27:19.188Z,8.30
2023-12-31T12:29:50.375Z,7.85
2023-12-31T12:32:21.535Z,7.63
2023-12-31T12:34:52.382Z,7.13
2023-12-31T12:37:22.984Z,7.25
2023-12-31T12:39:58.999Z,8.13
2023-12-31T12:42:29.696Z,7.32
2023-12-31T12:45:00.685Z,7.22
2023-12-31T12:47:31.812Z,6.78
2023-12-31T12:50:02.632Z,6.82
2023-12-31T12:52:33.280Z,6.70
2023-12-31T12:55:03.505Z,7.35
2023-12-31T12:57:33.938Z,6.75
2023-12-31T13:00:05.081Z,7.68
2023-12-31T13:02:36.625Z,7.47
2023-12-31T13:05:07.247Z,6.57
2023-12-31T13:07:37.327Z,6.63
2023-12-31T13:10:08.024Z,6.93
2023-12-31T13:12:38.486Z,6.68
2023-12-31T13:15:09.008Z,6.45
2023-12-31T13:17:39.340Z,6.90
2023-12-31T13:20:10.773Z,5.40
2023-12-31T13:22:41.153Z,5.78
2023-12-31T13:25:12.048Z,5.50
2023-12-31T13:27:42.812Z,5.28
2023-12-31T13:30:14.005Z,5.40
2023-12-31T13:32:46.569Z,5.20
2023-12-31T13:35:16.966Z,5.28
2023-12-31T13:37:47.333Z,5.13
2023-12-31T13:40:17.782Z,5.30
2023-12-31T13:42:48.121Z,4.70
2023-12-31T13:45:18.565Z,4.90
2023-12-31T13:47:48.832Z,4.63
2023-12-31T13:50:20.296Z,4.38
2023-12-31T13:52:50.738Z,4.55
2023-12-31T13:55:20.973Z,4.43
2023-12-31T13:57:51.279Z,4.53
2023-12-31T14:00:21.344Z,4.45
2023-12-31T14:02:57.325Z,3.92
2023-12-31T14:05:35.239Z,3.95
2023-12-31T14:08:05.961Z,3.97
2023-12-31T14:10:36.362Z,3.88
2023-12-31T14:13:06.892Z,3.40
2023-12-31T14:15:37.372Z,3.85
2023-12-31T14:18:07.953Z,3.70
2023-12-31T14:20:38.545Z,3.05
2023-12-31T14:23:10.531Z,3.25
2023-12-31T14:25:42.130Z,3.22
2023-12-31T14:28:13.036Z,3.80
2023-12-31T14:30:45.162Z,3.58
2023-12-31T14:33:15.696Z,3.60
2023-12-31T14:35:46.214Z,3.10
2023-12-31T14:38:16.909Z,2.72
2023-12-31T14:40:47.187Z,3.53
2023-12-31T14:43:17.477Z,3.28
2023-12-31T14:45:49.028Z,3.58
2023-12-31T14:48:21.132Z,3.78
2023-12-31T14:50:52.259Z,3.08
2023-12-31T14:53:22.918Z,2.97
2023-12-31T14:55:53.062Z,3.25
2023-12-31T14:58:25.516Z,3.25
2023-12-31T15:00:55.767Z,2.72
2023-12-31T15:03:26.023Z,4.10
2023-12-31T15:05:56.309Z,5.00
2023-12-31T15:08:26.561Z,3.95
2023-12-31T15:10:56.995Z,3.88
2023-12-31T15:13:27.596Z,3.67
2023-12-31T15:15:57.982Z,3.38
2023-12-31T15:18:29.811Z,3.22
2023-12-31T15:20:59.996Z,3.63
2023-12-31T15:23:30.758Z,2.67
2023-12-31T15:26:00.792Z,3.13
2023-12-31T15:28:31.810Z,3.03
2023-12-31T15:31:03.293Z,3.38
2023-12-31T15:33:33.887Z,2.80
2023-12-31T15:36:04.158Z,2.65
2023-12-31T15:38:34.445Z,2.92
2023-12-31T15:41:04.831Z,2.45
2023-12-31T15:43:35.023Z,3.08
2023-12-31T15:46:05.266Z,2.72
2023-12-31T15:49:02.986Z,2.90
2023-12-31T15:51:34.138Z,2.30
2023-12-31T15:54:04.742Z,2.40
2023-12-31T15:56:34.629Z,3.08
2023-12-31T15:59:05.069Z,2.72
2023-12-31T16:01:35.541Z,2.83
2023-12-31T16:04:06.079Z,2.50
2023-12-31T16:06:36.189Z,2.65
2023-12-31T16:09:06.471Z,2.30
2023-12-31T16:11:36.637Z,2.97
2023-12-31T16:14:07.041Z,2.80
2023-12-31T16:16:37.477Z,3.00
2023-12-31T16:19:08.128Z,2.65
2023-12-31T16:21:39.151Z,2.22
2023-12-31T16:24:09.590Z,2.60
2023-12-31T16:26:39.590Z,2.53
2023-12-31T16:29:10.421Z,2.47
2023-12-31T16:31:40.642Z,2.78
2023-12-31T16:34:10.948Z,2.50
2023-12-31T16:36:41.847Z,1.95
2023-12-31T16:39:12.133Z,2.13
2023-12-31T16:41:42.465Z,2.22
2023-12-31T16:44:13.123Z,2.45
2023-12-31T16:46:43.336Z,2.45
2023-12-31T16:49:13.609Z,2.53
2023-12-31T16:51:43.695Z,2.50
2023-12-31T16:54:13.947Z,2.78
2023-12-31T16:56:47.096Z,2.53
2023-12-31T16:59:19.462Z,2.63
2023-12-31T17:01:49.730Z,2.17
2023-12-31T17:04:20.160Z,2.30
2023-12-31T17:06:50.285Z,2.58
2023-12-31T17:09:20.649Z,2.53
2023-12-31T17:11:50.718Z,2.50
2023-12-31T17:14:21.056Z,3.40
2023-12-31T17:16:51.347Z,2.33
2023-12-31T17:19:22.604Z,2.85
2023-12-31T17:21:53.181Z,2.30
2023-12-31T17:24:23.815Z,2.70
2023-12-31T17:26:56.600Z,3.00
2023-12-31T17:29:27.846Z,3.05
2023-12-31T17:31:58.066Z,2.67
2023-12-31T17:34:28.818Z,2.40
2023-12-31T17:36:59.064Z,2.55
2023-12-31T17:39:29.195Z,2.95
2023-12-31T17:41:59.325Z,2.65
2023-12-31T17:44:29.662Z,2.83
2023-12-31T17:47:01.345Z,3.45
2023-12-31T17:49:31.826Z,3.25
2023-12-31T17:52:01.799Z,2.92
2023-12-31T17:54:32.344Z,2.70
2023-12-31T17:57:02.366Z,3.38
2023-12-31T17:59:32.914Z,3.00
2023-12-31T18:02:04.804Z,3.13
2023-12-31T18:04:37.481Z,3.58
2023-12-31T18:07:07.687Z,3.55
2023-12-31T18:09:38.726Z,3.00
2023-12-31T18:12:08.937Z,3.75
2023-12-31T18:14:39.634Z,2.90
2023-12-31T18:17:09.637Z,3.30
2023-12-31T18:19:40.736Z,3.72
2023-12-31T18:22:10.763Z,3.40
2023-12-31T18:24:41.081Z,3.60
2023-12-31T18:27:13.018Z,3.53
2023-12-31T18:29:46.770Z,3.53
2023-12-31T18:32:17.050Z,4.38
2023-12-31T18:34:47.465Z,3.40
2023-12-31T18:37:18.423Z,3.30
2023-12-31T18:39:50.527Z,3.63
2023-12-31T18:42:21.159Z,3.60
2023-12-31T18:44:51.810Z,3.55
2023-12-31T18:47:22.030Z,3.78
2023-12-31T18:49:52.296Z,2.97
2023-12-31T18:52:22.516Z,3.17
2023-12-31T18:54:52.812Z,3.30
2023-12-31T18:57:23.303Z,3.60
2023-12-31T18:59:53.492Z,3.35
2023-12-31T19:02:23.703Z,2.95
2023-12-31T19:04:54.094Z,3.70
2023-12-31T19:07:24.349Z,3.13
2023-12-31T19:09:54.888Z,4.15
2023-12-31T19:12:25.059Z,4.38
2023-12-31T19:14:55.392Z,4.53
2023-12-31T19:17:28.482Z,4.85
2023-12-31T19:19:59.624Z,4.95
2023-12-31T19:22:29.790Z,5.53
2023-12-31T19:25:00.033Z,6.45
2023-12-31T19:27:29.984Z,6.70
2023-12-31T19:30:00.709Z,6.43
2023-12-31T19:32:30.974Z,6.75
2023-12-31T19:35:01.233Z,6.82
2023-12-31T19:37:31.395Z,7.70
2023-12-31T19:40:01.671Z,7.85
2023-12-31T19:42:31.836Z,8.25
2023-12-31T19:45:02.199Z,8.00
2023-12-31T19:47:33.233Z,8.45
2023-12-31T19:50:04.042Z,8.25
2023-12-31T19:52:34.376Z,8.88
2023-12-31T19:55:06.044Z,9.55
2023-12-31T19:57:36.483Z,8.70
2023-12-31T20:00:07.583Z,9.23
2023-12-31T20:02:37.606Z,9.95
2023-12-31T20:05:08.231Z,10.63
2023-12-31T20:07:38.925Z,9.73
2023-12-31T20:10:09.741Z,9.45
2023-12-31T20:12:39.777Z,9.57
2023-12-31T20:15:10.531Z,9.18
2023-12-31T20:17:40.864Z,9.60
2023-12-31T20:20:12.299Z,10.30
2023-12-31T20:22:42.993Z,10.15
2023-12-31T20:25:16.570Z,10.45
2023-12-31T20:27:47.440Z,9.73
2023-12-31T20:30:18.408Z,10.27
2023-12-31T20:32:49.325Z,9.43
2023-12-31T20:35:20.772Z,9.75
2023-12-31T20:37:51.398Z,10.02
2023-12-31T20:40:24.379Z,10.15
2023-12-31T20:42:54.803Z,10.43
2023-12-31T20:45:27.049Z,10.07
2023-12-31T20:47:57.457Z,10.25
2023-12-31T20:50:28.489Z,11.07
2023-12-31T20:52:59.044Z,10.80
2023-12-31T20:55:33.256Z,11.70
2023-12-31T20:58:03.880Z,11.35
2023-12-31T21:00:35.833Z,10.75
2023-12-31T21:03:07.106Z,11.57
2023-12-31T21:05:37.736Z,12.13
2023-12-31T21:08:08.851Z,12.50
2023-12-31T21:10:39.347Z,11.40
2023-12-31T21:13:09.723Z,12.57
2023-12-31T21:15:42.369Z,12.20
2023-12-31T21:18:16.099Z,12.65
2023-12-31T21:20:48.617Z,11.38
2023-12-31T21:23:19.006Z,12.75
2023-12-31T21:25:50.555Z,11.52
2023-12-31T21:28:21.233Z,12.20
2023-12-31T21:30:52.276Z,11.77
2023-12-31T21:33:23.113Z,11.80
2023-12-31T21:35:53.450Z,12.02
2023-12-31T21:38:23.953Z,12.40
2023-12-31T21:40:54.251Z,12.55
2023-12-31T21:43:24.699Z,11.55
2023-12-31T21:45:54.778Z,12.15
2023-12-31T21:48:25.166Z,11.85
2023-12-31T21:50:55.344Z,11.20
2023-12-31T21:53:25.846Z,12.10
2023-12-31T21:56:11.265Z,12.27
2023-12-31T21:58:46.588Z,12.05
2023-12-31T22:01:17.017Z,11.25
2023-12-31T22:03:47.438Z,12.30
2023-12-31T22:06:17.713Z,12.85
2023-12-31T22:08:47.787Z,12.75
2023-12-31T22:11:19.902Z,12.13
2023-12-31T22:13:50.685Z,12.48
2023-12-31T22:16:21.992Z,12.05
2023-12-31T22:18:52.483Z,11.85
2023-12-31T22:21:23.256Z,11.52
2023-12-31T22:23:53.463Z,11.60
2023-12-31T22:26:23.322Z,10.13
2023-12-31T22:28:53.843Z,11.00
2023-12-31T22:31:24.574Z,10.68
2023-12-31T22:33:54.744Z,10.43
2023-12-31T22:36:25.081Z,10.55
2023-12-31T22:38:55.305Z,10.27
2023-12-31T22:41:25.516Z,9.18
2023-12-31T22:43:55.853Z,9.75
2023-12-31T22:46:32.448Z,10.55
2023-12-31T22:49:02.727Z,9.32
2023-12-31T22:51:32.984Z,10.40
2023-12-31T22:54:03.261Z,9.75
2023-12-31T22:56:33.329Z,10.43
2023-12-31T22:59:03.738Z,10.40
2023-12-31T23:01:33.790Z,10.32
2023-12-31T23:04:04.251Z,10.13
2023-12-31T23:06:34.399Z,10.43
2023-12-31T23:09:04.596Z,10.20
2023-12-31T23:11:35.117Z,8.77
2023-12-31T23:14:05.482Z,11.50
2023-12-31T23:16:35.807Z,9.70
2023-12-31T23:19:06.147Z,10.07
2023-12-31T23:21:36.125Z,11.50
2023-12-31T23:24:06.625Z,14.55
2023-12-31T23:26:38.496Z,13.32
2023-12-31T23:31:39.069Z,13.55
2023-12-31T23:34:09.363Z,14.27
2023-12-31T23:36:46.687Z,13.95
2023-12-31T23:39:21.699Z,13.27
2023-12-31T23:41:51.838Z,13.98
2023-12-31T23:44:23.983Z,13.77
2023-12-31T23:46:55.438Z,12.82
2023-12-31T23:49:26.642Z,13.60
2023-12-31T23:51:58.094Z,14.75
2023-12-31T23:54:28.255Z,12.30
2023-12-31T23:56:58.441Z,15.07
2023-12-31T23:59:29.093Z,15.85
